Billings, MT

6:20 AM MDT on October 24, 2014 (GMT -0600)
South Big Horn County | Change Station
CLOSE
Current Station
Airport
Location: Greybull,
Elevation: 3934 ft
Nearby Weather Stations

Elev 3934 ft 44.52 °N, 108.08 °W | Updated 27 minutes ago

Clear
Clear
39 °F
Feels Like 36 °F
N
5
Wind Variable Wind from ESE

Today
High -- | Low -- °F
--% Chance of Precip.
Yesterday
High -- | Low -- °F
Precip. -- in
7:42 AM 6:12 PM
New Moon, 0% visible
Pressure 29.97 in
Visibility 10.0 miles
Clouds Clear
Windchill 36 °F
Dew Point 26 °F
Humidity 60%
Rainfall 0.00 in
Snow Depth Not available.
UV 0 out of 12
Pollen 1.70 out of 12
Air Quality Not available.
Flu Activity No Activity
METAR KGEY 241153Z AUTO 11004KT 10SM CLR 04/M03 A2998 RMK AO2 SLP147 T00391033 10100 20039 53005

More Conditions Fewer Conditions

Pressure 29.97 in
Visibility 10.0 miles
Clouds Clear
Windchill 36 °F
Dew Point 26 °F
Humidity 60%
Rainfall 0.00 in
Snow Depth Not available.
UV 0 out of 12
Pollen 1.70 out of 12
Air Quality Not available.
Flu Activity No Activity
METAR KGEY 241153Z AUTO 11004KT 10SM CLR 04/M03 A2998 RMK AO2 SLP147 T00391033 10100 20039 53005

More Conditions Fewer Conditions

10-Day Weather Forecast

Almanac

Astronomy

Oct. 24, 2014 Rise Set
Actual Time 7:42 AM MDT 6:12 PM MDT
Civil Twilight 7:12 AM MDT 6:43 PM MDT
Nautical Twilight 6:37 AM MDT 7:17 PM MDT
Astronomical Twilight 6:03 AM MDT 7:52 PM MDT
Moon 8:26 AM MDT 6:52 PM MDT
Length of Visible Light 11h 30m
Length of Day
10h 29m
Tomorrow will be 3m 0s shorter.
New Moon, 0% of the Moon is Illuminated
Today
New Moon
Oct 30
First Quarter
Nov 6
Full
Nov 14
Last Quarter
Nov 22
New

Today's Extremes

State Highs State Lows

Community

WunderPhotos

Upload Photos

1,764,533 photos uploaded!

Nearby

Snow Depth

Station Depth Elevation
Burnt Mountain 0 in 5880 ft
Placer Basin 0 in 8830 ft
Crystal Lake 1 in 6050 ft
Fisher Creek 2 in 9100 ft
Northeast Entrance 0 in 7350 ft

Earthquake Activity

City Distance Mag. Time & Date
No recent earthquake activity has been reported nearby.
Minimum magnitude displayed is 2.5.

Coastal Water Temperatures

Place Temperature
No Stations Reporting

Nearby Weather Stations